Conroe's Hourly Summary for Tuesday, May 15, 2018
Hour Temp
(f)
RH
(%)
Solar Rad.
(MJ/m2)
Rainfall
(in)
Wind
(mph)
5/15/2018 12:00 AM 68 83 0 0 0.03
5/15/2018 1:00 AM 66 85 0 0 0
5/15/2018 2:00 AM 65 88 0 0 0
5/15/2018 3:00 AM 64 90 0 0 0
5/15/2018 4:00 AM 63 90 0 0 0
5/15/2018 5:00 AM 62 90 0 0 0
5/15/2018 6:00 AM 61 91 0.02 0 0
5/15/2018 7:00 AM 65 80 0.48 0 0
5/15/2018 8:00 AM 74 71 1.14 0 0.79
5/15/2018 9:00 AM 77 56 1.63 0 1.7
5/15/2018 10:00 AM 81 47 2.3 0 1.67
5/15/2018 11:00 AM 84 36 2.87 0 2.03
5/15/2018 12:00 PM 85 37 3.17 0 2.37
5/15/2018 1:00 PM 87 33 3.23 0 2.37
5/15/2018 2:00 PM 87 34 3.11 0 3.25
5/15/2018 3:00 PM 88 31 2.79 0 3.48
5/15/2018 4:00 PM 89 30 2.28 0 3.54
5/15/2018 5:00 PM 89 28 1.66 0 3.03
5/15/2018 6:00 PM 86 31 0.43 0 0.81
5/15/2018 7:00 PM 82 41 0.1 0 0.34
5/15/2018 8:00 PM 78 56 0 0 0.07
5/15/2018 9:00 PM 76 64 0 0 0
5/15/2018 10:00 PM 75 64 0 0 0.02
5/15/2018 11:00 PM 74 57 0 0 0.18
Data Summary 76 58 25.21 0.00 1.07